Time;durP1;ratioP1;P1;durP2;ratioP2;P2;SDS_P1;SDS_P2;PMS_P1;PMS_P2;Temp;Humidity;BMP_temperature;BMP_pressure;BME280_temperature;BME280_humidity;BME280_pressure;Samples;Min_cycle;Max_cycle;Signal;HPM_P1;HPM_P2
2022/04/21 00:00:05;;;;;;;5.07;3.47;;;;;;;8.98;100.00;100252.75;5052926;28;20624;-66
2022/04/21 00:02:33;;;;;;;4.95;3.38;;;;;;;8.60;100.00;100198.59;5052439;28;20093;-66
2022/04/21 00:04:59;;;;;;;5.95;3.88;;;;;;;8.85;100.00;100246.38;5035615;28;20117;-66
2022/04/21 00:07:25;;;;;;;4.55;3.22;;;;;;;8.77;100.00;100240.59;5034443;28;20924;-66
2022/04/21 00:09:50;;;;;;;7.18;3.65;;;;;;;8.70;100.00;100231.31;5052425;28;20031;-66
2022/04/21 00:12:16;;;;;;;4.97;3.30;;;;;;;8.83;100.00;100263.91;5052592;28;20027;-66
2022/04/21 00:14:41;;;;;;;6.70;3.97;;;;;;;8.86;100.00;100257.66;5052825;28;20929;-66
2022/04/21 00:17:10;;;;;;;4.88;3.58;;;;;;;8.85;100.00;100256.00;5052100;28;20887;-66
2022/04/21 00:19:36;;;;;;;5.32;3.35;;;;;;;8.67;100.00;100229.69;5053762;28;20039;-66
2022/04/21 00:24:47;;;;;;;5.43;3.38;;;;;;;8.78;100.00;100244.94;5052527;28;20899;-66
2022/04/21 00:27:12;;;;;;;5.40;3.53;;;;;;;8.76;100.00;100249.38;5054103;28;20036;-66
2022/04/21 00:29:38;;;;;;;5.47;3.33;;;;;;;8.69;100.00;100240.94;5053445;28;20028;-66
2022/04/21 00:32:04;;;;;;;5.97;3.40;;;;;;;8.62;100.00;100233.44;5053403;28;20129;-66
2022/04/21 00:34:29;;;;;;;6.03;3.25;;;;;;;8.65;100.00;100243.78;5052156;28;20174;-66
2022/04/21 00:36:54;;;;;;;5.88;3.50;;;;;;;8.45;100.00;100215.03;5034903;28;20846;-66
2022/04/21 00:39:20;;;;;;;6.20;3.38;;;;;;;8.58;100.00;100231.88;5052373;28;20181;-66
2022/04/21 00:41:45;;;;;;;8.70;3.90;;;;;;;8.26;100.00;100187.91;5033899;28;20914;-66
2022/04/21 00:44:10;;;;;;;6.95;3.50;;;;;;;8.53;100.00;100245.19;5052011;28;20884;-67
2022/04/21 00:46:40;;;;;;;6.18;3.53;;;;;;;8.43;100.00;100222.94;5033943;28;20078;-67
2022/04/21 00:49:06;;;;;;;6.75;3.33;;;;;;;8.43;100.00;100228.16;5055112;28;20035;-67
2022/04/21 00:51:31;;;;;;;5.57;3.47;;;;;;;8.33;100.00;100215.53;5072439;28;20089;-65
2022/04/21 00:53:58;;;;;;;6.00;3.38;;;;;;;8.38;100.00;100226.69;5055495;28;20039;-65
2022/04/21 00:56:24;;;;;;;6.05;4.03;;;;;;;8.31;100.00;100222.63;5071837;28;20028;-65
2022/04/21 00:58:49;;;;;;;5.05;3.25;;;;;;;8.25;100.00;100220.25;5055017;28;20030;-65
2022/04/21 01:03:58;;;;;;;5.95;3.38;;;;;;;8.29;100.00;100237.53;5064818;28;20043;-65
2022/04/21 01:06:24;;;;;;;8.38;3.30;;;;;;;8.08;100.00;100203.50;5047921;28;20060;-65
2022/04/21 01:08:49;;;;;;;6.50;3.65;;;;;;;8.22;100.00;100229.91;5032422;28;20928;-66
2022/04/21 01:11:18;;;;;;;4.53;3.53;;;;;;;8.18;100.00;100228.34;5034075;28;20032;-67
2022/04/21 01:13:44;;;;;;;5.93;3.30;;;;;;;7.97;100.00;100192.66;5016897;28;20036;-66
2022/04/21 01:16:09;;;;;;;5.88;4.10;;;;;;;8.08;100.00;100221.81;5049744;28;20028;-66
2022/04/21 01:18:35;;;;;;;5.85;3.22;;;;;;;8.03;100.00;100228.16;5017039;28;20073;-66
2022/04/21 01:21:00;;;;;;;4.90;2.97;;;;;;;7.42;100.00;100140.97;5047301;28;20089;-66
2022/04/21 01:23:26;;;;;;;5.28;3.67;;;;;;;7.91;100.00;100239.16;5034453;28;20883;-66
2022/04/21 01:25:52;;;;;;;5.80;3.85;;;;;;;7.84;100.00;100237.72;5036422;28;20024;-66
2022/04/21 01:28:18;;;;;;;6.70;3.58;;;;;;;7.67;100.00;100214.88;5052962;28;20028;-66
2022/04/21 01:30:43;;;;;;;5.03;3.58;;;;;;;7.67;100.00;100218.31;5052658;28;20036;-66
2022/04/21 01:33:09;;;;;;;4.13;3.15;;;;;;;7.60;100.00;100224.69;5049753;28;20795;-67
2022/04/21 01:35:34;;;;;;;5.97;3.35;;;;;;;7.37;100.00;100195.22;5051803;28;20079;-67
2022/04/21 01:43:28;;;;;;;4.35;3.30;;;;;;;7.33;100.00;100230.22;5051578;28;20034;-67
2022/04/21 01:45:53;;;;;;;7.15;3.95;;;;;;;7.35;100.00;100234.47;5050615;28;20040;-66
2022/04/21 01:48:18;;;;;;;6.65;3.95;;;;;;;7.36;100.00;100235.31;5050686;28;20021;-65
2022/04/21 01:50:44;;;;;;;7.53;3.95;;;;;;;7.28;100.00;100219.06;5050844;28;20868;-65
2022/04/21 01:53:09;;;;;;;5.00;3.40;;;;;;;7.30;100.00;100222.50;5050898;28;20135;-65
2022/04/21 01:55:35;;;;;;;5.72;3.80;;;;;;;7.33;100.00;100225.84;5051589;28;20035;-66
2022/04/21 01:58:00;;;;;;;9.93;4.78;;;;;;;7.32;100.00;100229.34;5052118;28;20834;-65
2022/04/21 02:00:26;;;;;;;4.57;3.30;;;;;;;7.31;100.00;100229.41;5050816;28;20744;-66
2022/04/21 02:02:51;;;;;;;6.45;3.88;;;;;;;7.30;100.00;100222.50;5050432;28;20277;-66
2022/04/21 02:05:16;;;;;;;6.18;3.65;;;;;;;7.29;100.00;100226.00;5051911;28;20895;-65
2022/04/21 02:07:46;;;;;;;4.97;3.40;;;;;;;7.28;100.00;100229.53;5050350;28;20066;-65
2022/04/21 02:10:13;;;;;;;5.93;4.07;;;;;;;7.18;100.00;100222.06;5033911;28;20030;-65
2022/04/21 02:12:38;;;;;;;6.10;4.25;;;;;;;7.13;100.00;100229.22;5050562;28;20028;-65
2022/04/21 02:15:06;;;;;;;4.68;3.30;;;;;;;7.03;100.00;100220.03;5033045;28;20894;-65
2022/04/21 02:17:32;;;;;;;6.20;3.97;;;;;;;6.89;100.00;100211.91;5050667;28;20036;-65
2022/04/21 02:19:57;;;;;;;4.88;3.83;;;;;;;6.90;100.00;100218.78;5050632;28;20453;-66
2022/04/21 02:22:22;;;;;;;5.22;3.55;;;;;;;6.87;100.00;100215.44;5050944;28;20028;-66
2022/04/21 02:24:48;;;;;;;4.28;3.35;;;;;;;6.78;100.00;100221.03;5050677;28;20143;-66
2022/04/21 02:27:14;;;;;;;6.20;3.70;;;;;;;6.74;100.00;100219.44;5051748;28;20890;-65
2022/04/21 02:29:39;;;;;;;5.70;3.90;;;;;;;6.61;100.00;100208.59;5050793;28;20036;-66
2022/04/21 02:32:05;;;;;;;5.05;4.20;;;;;;;6.58;100.00;100219.16;5031800;28;20028;-66
2022/04/21 02:34:30;;;;;;;6.90;4.20;;;;;;;6.41;100.00;100201.50;5033422;28;20793;-66
2022/04/21 02:36:56;;;;;;;7.88;3.92;;;;;;;6.44;100.00;100221.41;5049859;28;20127;-66
2022/04/21 02:39:22;;;;;;;7.18;3.97;;;;;;;6.35;100.00;100208.72;5049578;28;20885;-66
2022/04/21 02:41:48;;;;;;;7.55;4.72;;;;;;;6.30;100.00;100223.66;5050064;28;20063;-66
2022/04/21 02:44:13;;;;;;;5.93;4.30;;;;;;;6.18;100.00;100203.25;5049800;28;20966;-66
2022/04/21 02:46:38;;;;;;;7.93;4.05;;;;;;;6.20;100.00;100206.63;5049688;28;20044;-66
2022/04/21 02:49:04;;;;;;;5.68;4.13;;;;;;;6.13;100.00;100200.78;5049623;28;20032;-67
2022/04/21 02:51:30;;;;;;;7.95;4.28;;;;;;;6.14;100.00;100205.09;5049778;28;20059;-66
2022/04/21 02:59:25;;;;;;;6.10;4.78;;;;;;;6.33;100.00;100198.31;5050153;28;20201;-66
2022/04/21 03:01:50;;;;;;;6.07;4.38;;;;;;;6.39;100.00;100199.84;5033137;28;20843;-66
2022/04/21 03:04:16;;;;;;;6.00;4.25;;;;;;;6.50;100.00;100211.59;5050277;28;20028;-66
2022/04/21 03:06:41;;;;;;;9.40;4.95;;;;;;;6.58;100.00;100211.34;5051537;28;20854;-66
2022/04/21 03:09:06;;;;;;;7.93;5.32;;;;;;;6.59;100.00;100205.22;5049938;28;20090;-66
2022/04/21 03:11:32;;;;;;;9.48;4.93;;;;;;;6.76;100.00;100217.63;5050309;28;20029;-66
2022/04/21 03:13:57;;;;;;;10.20;4.43;;;;;;;6.79;100.00;100218.38;5050239;28;20039;-66
2022/04/21 03:16:22;;;;;;;6.65;4.55;;;;;;;6.36;100.00;100142.56;5050971;28;20094;-66
2022/04/21 03:18:48;;;;;;;5.93;4.72;;;;;;;6.65;100.00;100191.94;5049251;28;20058;-65
2022/04/21 03:26:41;;;;;;;7.78;4.85;;;;;;;6.88;100.00;100211.94;5049293;28;20038;-66
2022/04/21 03:29:07;;;;;;;6.30;4.75;;;;;;;6.79;100.00;100197.50;5049086;28;20028;-66
2022/04/21 03:31:32;;;;;;;7.32;4.75;;;;;;;6.91;100.00;100217.91;5049647;28;20085;-67
2022/04/21 03:33:57;;;;;;;5.43;4.38;;;;;;;6.87;100.00;100211.09;5049684;28;20873;-66
2022/04/21 03:36:23;;;;;;;5.85;4.28;;;;;;;6.99;100.00;100221.09;5049096;28;20059;-66
2022/04/21 03:38:48;;;;;;;6.28;4.07;;;;;;;6.97;100.00;100222.88;5051077;28;20055;-66
2022/04/21 03:41:13;;;;;;;5.15;3.85;;;;;;;6.91;100.00;100223.13;5049155;28;20036;-66
2022/04/21 03:43:39;;;;;;;6.47;4.03;;;;;;;6.89;100.00;100214.50;5031284;28;20028;-66
2022/04/21 03:46:04;;;;;;;6.65;3.88;;;;;;;6.97;100.00;100227.25;5049064;28;20060;-65
2022/04/21 03:48:30;;;;;;;5.13;3.58;;;;;;;6.81;100.00;100203.50;5047368;28;20059;-67
2022/04/21 03:50:56;;;;;;;5.65;3.92;;;;;;;6.58;100.00;100170.44;5029169;28;20035;-66
2022/04/21 03:53:21;;;;;;;5.28;4.20;;;;;;;6.86;100.00;100214.59;5030511;28;20959;-65
2022/04/21 03:55:47;;;;;;;6.70;4.15;;;;;;;6.63;100.00;100180.66;5023012;28;20432;-66
2022/04/21 03:58:12;;;;;;;6.03;4.28;;;;;;;6.76;100.00;100217.63;5047902;28;20553;-66
2022/04/21 04:00:38;;;;;;;10.23;5.22;;;;;;;6.73;100.00;100215.97;5038862;28;20794;-66
2022/04/21 04:03:03;;;;;;;6.18;4.15;;;;;;;6.71;100.00;100225.63;5029302;28;20032;-66
2022/04/21 04:05:28;;;;;;;6.88;4.43;;;;;;;6.56;100.00;100211.38;5029455;28;20030;-66
2022/04/21 04:10:53;;;;;;;6.93;4.50;;;;;;;6.52;100.00;100232.44;5049253;28;20043;-66
2022/04/21 04:13:23;;;;;;;5.70;4.63;;;;;;;6.38;100.00;100219.91;5030921;28;20292;-66
2022/04/21 04:15:49;;;;;;;6.80;4.40;;;;;;;6.09;100.00;100189.59;5048269;28;20016;-66
2022/04/21 04:18:16;;;;;;;11.43;4.63;;;;;;;6.28;100.00;100231.56;5047970;28;20039;-66
2022/04/21 04:20:42;;;;;;;7.18;4.70;;;;;;;6.22;100.00;100228.31;5050021;28;20031;-66
2022/04/21 04:23:07;;;;;;;5.05;3.85;;;;;;;6.08;100.00;100220.97;5029506;28;20211;-66
2022/04/21 04:25:32;;;;;;;5.53;4.05;;;;;;;6.08;100.00;100224.41;5049825;28;20032;-66
2022/04/21 04:27:58;;;;;;;7.55;4.93;;;;;;;6.12;100.00;100236.44;5051120;28;20881;-66
2022/04/21 04:30:24;;;;;;;6.00;4.57;;;;;;;6.05;100.00;100221.91;5049723;28;20928;-66
2022/04/21 04:32:49;;;;;;;8.40;4.72;;;;;;;5.91;100.00;100200.69;5052208;28;20024;-66
2022/04/21 04:35:15;;;;;;;7.25;4.70;;;;;;;6.03;100.00;100226.34;5051641;28;20098;-66
2022/04/21 04:37:40;;;;;;;5.40;4.05;;;;;;;6.02;100.00;100223.78;5052196;28;20031;-66
2022/04/21 04:40:06;;;;;;;4.95;3.78;;;;;;;6.05;100.00;100223.69;5052147;28;20024;-66
2022/04/21 04:42:31;;;;;;;8.02;4.50;;;;;;;5.89;100.00;100218.13;5052841;28;20320;-66
2022/04/21 04:47:41;;;;;;;5.97;4.60;;;;;;;6.01;100.00;100228.16;5052790;28;20828;-65
2022/04/21 04:50:07;;;;;;;7.72;4.70;;;;;;;6.06;100.00;100228.84;5050708;28;20051;-65
2022/04/21 04:52:33;;;;;;;6.50;4.32;;;;;;;6.13;100.00;100227.72;5052293;28;20038;-65
2022/04/21 04:54:59;;;;;;;6.45;4.40;;;;;;;6.09;100.00;100218.31;5033996;28;20020;-65
2022/04/21 04:57:24;;;;;;;7.28;4.82;;;;;;;6.20;100.00;100227.50;5052808;28;20028;-65
2022/04/21 04:59:50;;;;;;;8.70;5.13;;;;;;;6.12;100.00;100215.56;5053548;28;20867;-66
2022/04/21 05:02:17;;;;;;;6.07;4.90;;;;;;;6.27;100.00;100234.22;5052282;28;20132;-66
2022/04/21 05:04:42;;;;;;;8.25;5.45;;;;;;;6.09;100.00;100200.03;5052141;28;20059;-66
2022/04/21 05:07:08;;;;;;;11.07;4.50;;;;;;;6.34;100.00;100230.47;5052512;28;20225;-66
2022/04/21 05:09:33;;;;;;;6.30;4.65;;;;;;;6.33;100.00;100224.41;5051717;28;20032;-66
2022/04/21 05:11:58;;;;;;;9.05;4.80;;;;;;;6.43;100.00;100235.38;5054024;28;20126;-65
2022/04/21 05:14:25;;;;;;;10.30;4.57;;;;;;;6.51;100.00;100235.94;5036158;28;20885;-65
2022/04/21 05:16:51;;;;;;;5.90;3.90;;;;;;;6.54;100.00;100235.84;5053359;28;20089;-65
2022/04/21 05:19:19;;;;;;;6.82;4.55;;;;;;;6.60;100.00;100246.06;5037754;28;20035;-66
2022/04/21 05:21:45;;;;;;;16.50;4.20;;;;;;;6.68;100.00;100238.81;5054173;28;20135;-66
2022/04/21 05:24:11;;;;;;;8.23;5.22;;;;;;;6.75;100.00;100228.97;5052291;28;20036;-66
2022/04/21 05:26:37;;;;;;;7.75;4.80;;;;;;;6.88;100.00;100238.06;5052412;28;20985;-65
2022/04/21 05:30:55;;;;;;;7.00;4.63;;;;;;;7.02;100.00;100236.63;5051284;28;20147;-66
2022/04/21 05:31:56;;;;;;;5.07;3.80;;;;;;;7.07;100.00;100219.00;5051101;28;20039;-66
2022/04/21 05:34:22;;;;;;;5.85;4.45;;;;;;;7.25;100.00;100232.25;5032519;28;20036;-66
2022/04/21 05:36:48;;;;;;;6.25;3.78;;;;;;;7.33;100.00;100227.59;5049891;28;20147;-66
2022/04/21 05:39:13;;;;;;;6.18;3.80;;;;;;;7.34;100.00;100222.28;5050994;28;20029;-66
2022/04/21 05:41:39;;;;;;;7.18;4.15;;;;;;;7.47;100.00;100238.34;5050237;28;20032;-65
2022/04/21 05:44:06;;;;;;;9.05;4.88;;;;;;;7.54;100.00;100227.56;5049530;28;20089;-65
2022/04/21 05:46:31;;;;;;;7.82;5.07;;;;;;;7.62;100.00;100232.50;5050822;28;20036;-65
2022/04/21 05:48:57;;;;;;;8.13;4.80;;;;;;;7.66;100.00;100227.09;5046378;28;20127;-65
2022/04/21 05:51:23;;;;;;;11.82;4.65;;;;;;;7.82;100.00;100235.16;5019044;28;20029;-66
2022/04/21 05:53:49;;;;;;;5.78;4.65;;;;;;;7.92;100.00;100233.84;5013761;28;20090;-66
2022/04/21 05:56:15;;;;;;;9.82;4.40;;;;;;;7.98;100.00;100230.97;5031473;28;20194;-66
2022/04/21 05:58:41;;;;;;;7.72;4.88;;;;;;;8.06;100.00;100225.41;5049634;28;20056;-66
2022/04/21 06:01:08;;;;;;;5.75;4.20;;;;;;;8.11;100.00;100226.91;5030022;28;20037;-65
2022/04/21 06:03:35;;;;;;;6.80;4.32;;;;;;;8.20;100.00;100231.75;5013162;28;20025;-65
2022/04/21 06:06:00;;;;;;;8.18;4.70;;;;;;;8.21;100.00;100214.31;5030209;28;20029;-65
2022/04/21 06:08:26;;;;;;;8.95;5.15;;;;;;;8.33;100.00;100220.78;5029350;28;20898;-65
2022/04/21 06:10:51;;;;;;;6.00;4.25;;;;;;;8.28;100.00;100202.66;5023762;28;20035;-65
2022/04/21 06:13:17;;;;;;;9.65;4.10;;;;;;;8.46;100.00;100221.94;5049852;28;20898;-65
2022/04/21 06:15:43;;;;;;;8.75;4.38;;;;;;;8.36;100.00;100190.09;5050420;28;20753;-66
2022/04/21 06:18:09;;;;;;;5.80;3.80;;;;;;;8.66;100.00;100219.28;5031655;28;20117;-65
2022/04/21 06:20:35;;;;;;;5.35;3.55;;;;;;;8.74;100.00;100211.94;5050597;28;20857;-65
2022/04/21 06:23:00;;;;;;;8.88;4.90;;;;;;;8.83;100.00;100206.25;5051444;28;20804;-65
2022/04/21 06:25:26;;;;;;;8.32;4.35;;;;;;;8.92;100.00;100211.06;5047620;28;20059;-68
2022/04/21 06:27:52;;;;;;;8.30;4.55;;;;;;;9.00;100.00;100195.84;5053118;28;20719;-65
2022/04/21 06:30:18;;;;;;;5.68;3.95;;;;;;;9.18;100.00;100208.09;5052714;28;20028;-65
2022/04/21 06:32:43;;;;;;;7.85;4.18;;;;;;;9.18;100.00;100192.38;5051209;28;20033;-65
2022/04/21 06:35:09;;;;;;;5.43;4.25;;;;;;;9.34;100.00;100208.19;5050285;28;20901;-65
2022/04/21 06:37:35;;;;;;;6.60;4.65;;;;;;;9.42;100.00;100213.94;5051858;28;20041;-65
2022/04/21 06:40:04;;;;;;;5.78;4.38;;;;;;;9.41;100.00;100187.78;5052686;28;20040;-66
2022/04/21 06:42:29;;;;;;;7.40;4.40;;;;;;;9.47;100.00;100197.97;5052272;28;20039;-65
2022/04/21 06:50:22;;;;;;;9.90;4.47;;;;;;;9.70;100.00;100184.56;5047717;28;20051;-65
2022/04/21 06:52:48;;;;;;;6.43;4.60;;;;;;;9.91;100.00;100201.84;5046492;28;20037;-66
2022/04/21 06:55:13;;;;;;;9.45;4.80;;;;;;;9.95;100.00;100198.16;5036248;28;20678;-65
2022/04/21 06:57:39;;;;;;;8.32;4.57;;;;;;;10.04;100.00;100197.69;5050654;28;20030;-65
2022/04/21 07:00:05;;;;;;;11.35;4.18;;;;;;;10.07;100.00;100194.06;5068889;28;20050;-65
2022/04/21 07:02:31;;;;;;;7.20;4.15;;;;;;;10.18;100.00;100203.09;5069366;28;20039;-65
2022/04/21 07:05:04;;;;;;;9.23;4.35;;;;;;;10.15;100.00;100198.00;5058275;28;20052;-66
2022/04/21 07:07:29;;;;;;;6.55;4.32;;;;;;;10.22;100.00;100203.78;5030097;28;20025;-65
2022/04/21 07:09:56;;;;;;;6.47;4.53;;;;;;;10.34;100.00;100218.09;5030884;28;20036;-66
2022/04/21 07:12:32;;;;;;;6.13;3.55;;;;;;;10.42;100.00;100223.75;5029115;28;20836;-66
2022/04/21 07:14:58;;;;;;;7.97;3.58;;;;;;;10.45;100.00;100206.06;5039959;28;20028;-65
2022/04/21 07:17:24;;;;;;;5.60;3.60;;;;;;;10.16;100.00;100155.09;5019032;28;20037;-65
2022/04/21 07:19:50;;;;;;;11.07;3.58;;;;;;;10.61;100.00;100217.44;5037286;28;20836;-65
2022/04/21 07:22:15;;;;;;;6.20;3.78;;;;;;;10.64;100.00;100213.84;5029194;28;20092;-65
2022/04/21 07:24:40;;;;;;;7.40;3.25;;;;;;;10.69;100.00;100209.16;5029682;28;20035;-65
2022/04/21 07:27:06;;;;;;;5.93;3.65;;;;;;;10.80;100.00;100217.34;5029593;28;20028;-66
2022/04/21 07:29:31;;;;;;;7.93;3.28;;;;;;;10.84;100.00;100218.03;5030098;28;20038;-65
2022/04/21 07:31:57;;;;;;;4.90;2.40;;;;;;;10.85;100.00;100210.03;5029370;28;20028;-65
2022/04/21 07:34:23;;;;;;;4.82;3.08;;;;;;;10.90;100.00;100204.53;5029247;28;20039;-65
2022/04/21 07:36:49;;;;;;;4.95;3.08;;;;;;;11.04;100.00;100210.75;5013124;28;20295;-65
2022/04/21 07:39:15;;;;;;;7.03;3.30;;;;;;;11.19;100.00;100220.41;5044522;28;20131;-66
2022/04/21 07:41:41;;;;;;;6.68;2.97;;;;;;;11.27;100.00;100223.47;5049152;28;20858;-65
2022/04/21 07:44:07;;;;;;;6.53;3.55;;;;;;;11.23;100.00;100211.41;5048155;28;20043;-68
2022/04/21 07:46:32;;;;;;;7.95;2.63;;;;;;;11.19;100.00;100193.25;5049195;28;20056;-65
2022/04/21 07:51:42;;;;;;;8.68;3.00;;;;;;;11.41;100.00;100206.06;5048763;28;20101;-66
2022/04/21 07:54:07;;;;;;;8.95;3.60;;;;;;;11.57;100.00;100215.63;5047698;28;20024;-65
2022/04/21 07:56:33;;;;;;;10.32;3.35;;;;;;;11.62;100.00;100197.78;5048257;28;20875;-66
2022/04/21 07:58:58;;;;;;;6.60;3.50;;;;;;;11.76;100.00;100212.81;5049679;28;20033;-65
2022/04/21 08:01:24;;;;;;;5.25;3.08;;;;;;;11.83;100.00;100222.03;5031024;28;20036;-66
2022/04/21 08:03:49;;;;;;;7.88;2.70;;;;;;;11.86;100.00;100203.47;5049766;28;20024;-67
2022/04/21 08:06:15;;;;;;;3.75;2.75;;;;;;;11.91;100.00;100209.28;5051105;28;20915;-65
2022/04/21 08:08:40;;;;;;;5.03;3.00;;;;;;;11.90;100.00;100207.56;5054445;28;20031;-66
2022/04/21 08:11:07;;;;;;;7.65;3.55;;;;;;;11.90;100.00;100207.56;5053277;28;20024;-65
2022/04/21 08:13:34;;;;;;;8.10;3.22;;;;;;;11.89;100.00;100198.00;5052845;28;20549;-65
2022/04/21 08:15:59;;;;;;;4.03;2.97;;;;;;;12.00;100.00;100216.63;5053079;28;20889;-66
2022/04/21 08:18:24;;;;;;;5.57;3.22;;;;;;;12.04;100.00;100209.41;5052992;28;20032;-66
2022/04/21 08:20:53;;;;;;;7.15;3.50;;;;;;;12.08;100.00;100211.78;5053890;28;20023;-65
2022/04/21 08:23:18;;;;;;;8.85;3.20;;;;;;;12.13;100.00;100207.06;5053130;28;20035;-65
2022/04/21 08:34:10;;;;;;;9.20;3.10;;;;;;;12.45;100.00;100194.59;5018349;28;20870;-65
2022/04/21 08:36:35;;;;;;;5.07;3.15;;;;;;;12.29;100.00;100157.81;5053800;28;20050;-66
2022/04/21 08:39:00;;;;;;;5.03;2.97;;;;;;;12.64;100.00;100210.16;5053243;28;20054;-65
2022/04/21 08:41:27;;;;;;;4.57;3.15;;;;;;;12.68;100.00;100185.25;5052621;28;20028;-66
2022/04/21 08:43:54;;;;;;;5.35;2.55;;;;;;;12.89;100.00;100204.16;5052359;28;20035;-65
2022/04/21 08:46:24;;;;;;;6.45;3.05;;;;;;;13.02;100.00;100202.44;5052430;28;20236;-65
2022/04/21 08:48:51;;;;;;;4.55;2.67;;;;;;;13.08;100.00;100205.53;5035165;28;20098;-65
2022/04/21 08:51:18;;;;;;;5.78;3.08;;;;;;;13.14;98.67;100199.94;5033726;28;20803;-65
2022/04/21 08:53:44;;;;;;;20.80;3.15;;;;;;;13.13;99.88;100198.22;5052706;28;20053;-66
2022/04/21 08:56:10;;;;;;;4.80;3.20;;;;;;;13.10;96.38;100192.31;5051628;28;20024;-67
2022/04/21 08:58:35;;;;;;;4.97;3.60;;;;;;;13.04;97.19;100188.25;5052515;28;20823;-65
2022/04/21 09:01:01;;;;;;;9.68;3.40;;;;;;;13.01;96.38;100182.31;5031669;28;20059;-66
2022/04/21 09:03:26;;;;;;;10.80;3.67;;;;;;;13.07;96.63;100188.03;5034438;28;20051;-66
2022/04/21 09:05:52;;;;;;;7.38;3.42;;;;;;;13.19;98.50;100187.28;5031368;28;20036;-65
2022/04/21 09:08:19;;;;;;;6.82;3.47;;;;;;;13.31;97.45;100186.47;5022814;28;20031;-66
2022/04/21 09:10:45;;;;;;;6.05;4.28;;;;;;;13.35;95.62;100186.31;5045227;28;20024;-65
2022/04/21 09:13:10;;;;;;;9.70;3.90;;;;;;;13.30;96.03;100174.25;5045887;28;20035;-65
2022/04/21 09:15:36;;;;;;;9.07;4.25;;;;;;;13.44;95.94;100185.69;5045565;28;20893;-66
2022/04/21 09:18:13;;;;;;;9.75;4.43;;;;;;;13.32;95.79;100155.66;5042756;28;20043;-66
2022/04/21 09:20:41;;;;;;;9.20;3.25;;;;;;;13.63;93.67;100188.81;5041786;28;20032;-65
2022/04/21 09:23:10;;;;;;;5.60;3.70;;;;;;;13.70;94.33;100172.47;5046556;28;20024;-65
2022/04/21 09:25:48;;;;;;;6.55;2.75;;;;;;;13.80;92.09;100167.41;5013718;28;20937;-67
2022/04/21 09:28:28;;;;;;;5.88;3.47;;;;;;;13.91;90.82;100174.63;5041841;28;20135;-64
2022/04/21 09:30:57;;;;;;;6.55;3.00;;;;;;;14.07;91.92;100181.41;5042345;28;20029;-65
2022/04/21 09:33:33;;;;;;;7.80;2.88;;;;;;;14.14;89.41;100169.47;5031895;28;20036;-67
2022/04/21 09:36:00;;;;;;;5.05;2.83;;;;;;;14.21;88.10;100167.25;5039456;28;20958;-67
2022/04/21 09:38:26;;;;;;;5.32;3.20;;;;;;;14.22;88.35;100164.50;5045044;28;20883;-66
2022/04/21 09:40:51;;;;;;;5.03;2.72;;;;;;;14.15;89.23;100139.47;5046535;28;20059;-65
2022/04/21 09:43:28;;;;;;;7.85;3.83;;;;;;;14.39;86.65;100167.81;5030756;28;20033;-66
2022/04/21 09:46:08;;;;;;;9.38;2.78;;;;;;;14.36;85.88;100144.25;5020099;28;20039;-65
2022/04/21 09:48:34;;;;;;;4.95;2.63;;;;;;;14.49;84.97;100160.94;5029262;28;20093;-65
2022/04/21 09:51:08;;;;;;;11.88;2.70;;;;;;;14.56;80.74;100156.91;5043560;28;20036;-66
2022/04/21 09:53:59;;;;;;;8.05;2.78;;;;;;;14.59;79.30;100138.19;5047373;28;20090;-66
2022/04/21 09:56:40;;;;;;;6.22;2.55;;;;;;;14.55;78.04;100119.03;5015146;28;20896;-67
2022/04/21 09:59:12;;;;;;;5.20;1.85;;;;;;;14.65;75.27;100150.97;5034986;28;20032;-67
2022/04/21 10:01:42;;;;;;;3.75;1.73;;;;;;;14.65;74.02;100145.66;5029848;28;20032;-67
2022/04/21 10:04:08;;;;;;;4.18;2.03;;;;;;;14.65;74.17;100121.88;5031480;28;20032;-67
2022/04/21 10:06:38;;;;;;;3.22;1.73;;;;;;;14.89;75.42;100143.94;5047050;28;20032;-65
2022/04/21 10:09:05;;;;;;;8.73;2.08;;;;;;;15.08;73.93;100133.69;5031786;28;20032;-67
2022/04/21 10:11:31;;;;;;;7.95;2.53;;;;;;;14.79;72.75;100090.84;5030231;28;20035;-66
2022/04/21 10:13:56;;;;;;;5.72;2.20;;;;;;;15.13;75.23;100130.72;5030033;28;20086;-66
2022/04/21 10:16:23;;;;;;;3.85;1.75;;;;;;;15.12;71.25;100123.72;5029884;28;20890;-66
2022/04/21 10:18:51;;;;;;;5.03;1.92;;;;;;;15.16;70.46;100125.19;5030677;28;20131;-66
2022/04/21 10:21:19;;;;;;;3.42;1.75;;;;;;;15.21;71.70;100128.34;5013848;28;20032;-67
2022/04/21 10:23:45;;;;;;;3.95;2.00;;;;;;;15.17;71.13;100118.94;5012633;28;20074;-66
2022/04/21 10:26:10;;;;;;;4.97;2.35;;;;;;;15.28;72.73;100108.38;5012554;28;20028;-67
2022/04/21 10:28:42;;;;;;;5.28;2.45;;;;;;;15.43;72.03;100117.84;5029838;28;20094;-65
2022/04/21 10:31:28;;;;;;;4.07;2.40;;;;;;;15.54;74.57;100119.75;5030531;28;20037;-66
2022/04/21 10:34:04;;;;;;;4.72;2.65;;;;;;;15.70;74.64;100125.56;5029795;28;20999;-65
2022/04/21 10:36:37;;;;;;;6.20;3.05;;;;;;;15.82;70.32;100111.38;5031103;28;20024;-66
2022/04/21 10:39:09;;;;;;;5.32;2.60;;;;;;;15.94;69.81;100099.84;5030223;28;20033;-67
2022/04/21 10:41:38;;;;;;;5.88;3.08;;;;;;;16.03;69.86;100107.09;5030473;28;20043;-66
2022/04/21 10:44:04;;;;;;;11.13;3.70;;;;;;;16.06;68.77;100082.13;5030782;28;20028;-68
2022/04/21 10:46:30;;;;;;;6.22;3.03;;;;;;;16.02;69.02;100092.13;5029401;28;20028;-67
2022/04/21 10:48:56;;;;;;;9.90;3.50;;;;;;;16.19;67.13;100096.13;5013876;28;20790;-66
2022/04/21 10:57:47;;;;;;;4.68;2.92;;;;;;;16.41;67.65;100071.41;5046526;28;20055;-66
2022/04/21 11:00:31;;;;;;;5.50;3.20;;;;;;;16.61;65.15;100078.66;5049520;28;20059;-65
2022/04/21 11:03:08;;;;;;;7.37;3.40;;;;;;;16.71;65.44;100084.91;5050507;28;20060;-66
2022/04/21 11:05:35;;;;;;;6.68;3.40;;;;;;;16.65;65.11;100077.47;5050908;28;20183;-65
2022/04/21 11:08:19;;;;;;;9.02;3.17;;;;;;;16.81;66.97;100067.28;5031566;28;20867;-66
2022/04/21 11:10:45;;;;;;;4.57;3.27;;;;;;;16.89;64.14;100070.16;5031811;28;20097;-66
2022/04/21 11:13:13;;;;;;;6.10;3.72;;;;;;;17.02;64.29;100065.53;5049729;28;20102;-66
2022/04/21 11:15:45;;;;;;;6.28;2.75;;;;;;;17.14;62.68;100069.81;5049823;28;20052;-67
2022/04/21 11:18:14;;;;;;;7.32;3.38;;;;;;;17.21;62.11;100071.00;5047009;28;20020;-65
2022/04/21 11:20:46;;;;;;;4.10;2.63;;;;;;;17.27;61.71;100061.72;5035592;28;20127;-66
2022/04/21 11:23:44;;;;;;;4.78;2.85;;;;;;;17.57;59.21;100061.84;5030045;28;20144;-66
2022/04/21 11:26:10;;;;;;;6.65;3.28;;;;;;;17.29;56.49;100019.91;5030014;28;20042;-67
2022/04/21 11:28:41;;;;;;;4.40;2.65;;;;;;;17.62;57.18;100064.94;5029014;28;20028;-66
2022/04/21 11:31:06;;;;;;;7.85;2.97;;;;;;;17.88;59.34;100062.69;5030492;28;20040;-66
2022/04/21 11:33:32;;;;;;;5.05;2.83;;;;;;;18.21;58.06;100043.84;5035849;28;20416;-66
2022/04/21 11:36:01;;;;;;;6.50;2.90;;;;;;;18.54;55.97;100053.38;5031568;28;20028;-66
2022/04/21 11:38:27;;;;;;;5.25;2.63;;;;;;;18.89;56.87;100031.59;5031111;28;20035;-66
2022/04/21 11:40:52;;;;;;;6.88;2.50;;;;;;;19.84;53.08;100029.81;5032857;28;20064;-65
2022/04/21 11:43:18;;;;;;;3.33;1.90;;;;;;;22.51;48.04;100035.00;5032668;28;20031;-65
2022/04/21 11:46:03;;;;;;;4.88;2.22;;;;;;;25.34;43.97;100041.56;5033025;28;20033;-66
2022/04/21 11:48:30;;;;;;;5.30;2.08;;;;;;;27.20;39.72;100020.53;5015198;28;20072;-65
2022/04/21 11:50:55;;;;;;;6.90;2.47;;;;;;;28.87;37.72;100040.16;5032654;28;20195;-66
2022/04/21 11:53:21;;;;;;;5.07;2.08;;;;;;;30.15;32.53;100023.56;5032868;28;20029;-66
2022/04/21 11:55:50;;;;;;;5.88;2.58;;;;;;;30.18;33.38;100031.25;5015508;28;20036;-66
2022/04/21 11:58:35;;;;;;;5.20;2.38;;;;;;;31.18;31.91;100033.38;5031867;28;20044;-66
2022/04/21 12:06:47;;;;;;;4.00;2.10;;;;;;;31.33;28.72;100014.88;5033101;28;20039;-66
2022/04/21 12:09:14;;;;;;;4.63;1.92;;;;;;;30.76;28.06;100021.25;5035082;28;20060;-67
2022/04/21 12:11:40;;;;;;;5.93;2.03;;;;;;;30.53;28.96;100010.09;5030940;28;20028;-66
2022/04/21 12:14:06;;;;;;;4.88;2.70;;;;;;;31.54;29.04;99986.50;5032042;28;20131;-65
2022/04/21 12:16:50;;;;;;;5.80;2.13;;;;;;;32.62;28.16;100001.25;5031292;28;20029;-65
2022/04/21 12:19:32;;;;;;;;;;;;;;;32.73;26.57;99996.94;5031955;28;20029;-66